Time;durP1;ratioP1;P1;durP2;ratioP2;P2;SDS_P1;SDS_P2;PMS_P1;PMS_P2;Temp;Humidity;BMP_temperature;BMP_pressure;BME280_temperature;BME280_humidity;BME280_pressure;Samples;Min_cycle;Max_cycle;Signal;HPM_P1;HPM_P2
2023/06/26 00:00:20;;;;;;;7.57;6.97;;;23.40;99.90;;;;;;5088271;28;20272;-68
2023/06/26 00:02:46;;;;;;;7.80;7.10;;;23.40;99.90;;;;;;5088012;28;20442;-68
2023/06/26 00:05:12;;;;;;;7.80;7.20;;;23.40;99.90;;;;;;5087775;28;20287;-68
2023/06/26 00:07:37;;;;;;;7.67;7.07;;;23.40;99.90;;;;;;5088153;28;20261;-68
2023/06/26 00:10:04;;;;;;;7.70;7.10;;;23.50;99.90;;;;;;5088320;28;20200;-68
2023/06/26 00:12:31;;;;;;;8.20;7.40;;;23.50;99.90;;;;;;5089815;28;20211;-68
2023/06/26 00:14:57;;;;;;;8.47;7.57;;;23.50;99.90;;;;;;5091917;28;20493;-68
2023/06/26 00:17:22;;;;;;;7.77;7.07;;;23.50;99.90;;;;;;5092133;28;21218;-68
2023/06/26 00:19:50;;;;;;;7.17;6.60;;;23.60;99.90;;;;;;5091966;28;20196;-68
2023/06/26 00:22:16;;;;;;;8.00;7.30;;;23.60;99.90;;;;;;5091355;28;20181;-68
2023/06/26 00:24:42;;;;;;;7.40;6.80;;;23.50;99.90;;;;;;5091684;28;20425;-68
2023/06/26 00:27:07;;;;;;;8.00;7.30;;;23.50;99.90;;;;;;5091927;28;20227;-68
2023/06/26 00:29:33;;;;;;;7.30;6.70;;;23.60;99.90;;;;;;5091794;28;20200;-68
2023/06/26 00:31:59;;;;;;;8.47;7.77;;;23.50;99.90;;;;;;5091561;28;20187;-68
2023/06/26 00:34:24;;;;;;;7.47;6.80;;;23.50;99.90;;;;;;5091480;28;20176;-68
2023/06/26 00:36:50;;;;;;;7.27;6.67;;;23.50;99.90;;;;;;5091604;28;20183;-68
2023/06/26 00:39:16;;;;;;;8.23;7.33;;;23.40;99.90;;;;;;5091506;28;20192;-68
2023/06/26 00:41:41;;;;;;;8.30;7.50;;;23.40;99.90;;;;;;5091393;28;20210;-68
2023/06/26 00:44:07;;;;;;;7.97;7.03;;;23.40;99.90;;;;;;5091236;28;20239;-67
2023/06/26 00:46:34;;;;;;;8.50;7.10;;;23.40;99.80;;;;;;5091311;28;20215;-68
2023/06/26 00:49:03;;;;;;;8.83;7.40;;;23.40;99.90;;;;;;5091300;28;20245;-68
2023/06/26 00:51:30;;;;;;;7.10;6.37;;;23.30;99.90;;;;;;5091082;28;20410;-68
2023/06/26 00:53:57;;;;;;;8.07;7.37;;;23.40;99.90;;;;;;5091183;28;20459;-67
2023/06/26 00:56:23;;;;;;;7.90;7.20;;;23.40;99.90;;;;;;5091361;28;20406;-67
2023/06/26 00:58:49;;;;;;;7.47;6.77;;;23.40;99.90;;;;;;5091115;28;20415;-68
2023/06/26 01:01:21;;;;;;;7.63;6.93;;;23.30;99.90;;;;;;5089652;28;20414;-67
2023/06/26 01:03:52;;;;;;;7.30;6.80;;;23.30;99.90;;;;;;5090990;28;20577;-68
2023/06/26 01:06:21;;;;;;;7.83;6.97;;;23.30;99.90;;;;;;5091223;28;20419;-68
2023/06/26 01:08:48;;;;;;;8.20;7.30;;;23.30;99.90;;;;;;5091005;28;20486;-68
2023/06/26 01:11:15;;;;;;;7.87;7.17;;;23.20;99.90;;;;;;5090911;28;20415;-68
2023/06/26 01:13:43;;;;;;;7.83;7.13;;;23.20;99.90;;;;;;5090432;28;20418;-68
2023/06/26 01:16:10;;;;;;;7.90;7.20;;;23.20;99.90;;;;;;5090875;28;20410;-68
2023/06/26 01:18:42;;;;;;;7.57;6.87;;;23.20;99.90;;;;;;5090978;28;20780;-68
2023/06/26 01:21:09;;;;;;;6.97;6.43;;;23.10;99.90;;;;;;5090694;28;20427;-68
2023/06/26 01:23:58;;;;;;;7.80;7.00;;;23.10;99.90;;;;;;5089413;28;20419;-68
2023/06/26 01:26:29;;;;;;;7.33;6.63;;;23.00;99.90;;;;;;5090860;28;20407;-68
2023/06/26 01:28:56;;;;;;;7.93;7.17;;;23.10;99.90;;;;;;5090760;28;20518;-68
2023/06/26 01:31:23;;;;;;;7.13;6.53;;;23.10;99.90;;;;;;5090519;28;20517;-68
2023/06/26 01:33:50;;;;;;;7.60;6.90;;;23.20;99.90;;;;;;5090502;28;20422;-68
2023/06/26 01:36:16;;;;;;;7.87;6.43;;;23.10;99.90;;;;;;5090752;28;20407;-68
2023/06/26 01:38:42;;;;;;;8.13;7.43;;;23.10;99.90;;;;;;5090581;28;20406;-67
2023/06/26 01:41:08;;;;;;;7.67;6.97;;;23.10;99.90;;;;;;5090417;28;20437;-68
2023/06/26 01:44:11;;;;;;;7.53;6.90;;;23.10;99.90;;;;;;5090103;28;20649;-68
2023/06/26 01:46:49;;;;;;;7.93;7.17;;;23.10;99.90;;;;;;5090371;28;20730;-68
2023/06/26 01:49:24;;;;;;;7.97;7.27;;;23.10;99.90;;;;;;5089178;28;20906;-68
2023/06/26 01:52:02;;;;;;;7.53;6.83;;;23.00;99.90;;;;;;5089976;28;20410;-68
2023/06/26 01:54:33;;;;;;;7.73;7.00;;;23.00;99.90;;;;;;5089982;28;20415;-68
2023/06/26 01:57:00;;;;;;;8.70;7.53;;;23.00;99.90;;;;;;5090333;28;20434;-68
2023/06/26 01:59:28;;;;;;;7.30;6.70;;;22.90;99.90;;;;;;5090231;28;20426;-68
2023/06/26 02:01:54;;;;;;;7.77;7.07;;;22.80;99.90;;;;;;5089805;28;20430;-68
2023/06/26 02:04:20;;;;;;;7.20;6.50;;;22.80;99.90;;;;;;5089748;28;20426;-68
2023/06/26 02:06:46;;;;;;;8.80;7.40;;;22.80;99.90;;;;;;5090032;28;20410;-68
2023/06/26 02:09:12;;;;;;;7.47;6.77;;;22.70;99.90;;;;;;5089790;28;20453;-68
2023/06/26 02:11:37;;;;;;;7.80;7.10;;;22.70;99.90;;;;;;5089551;28;20168;-68
2023/06/26 02:14:03;;;;;;;7.13;6.53;;;22.60;99.90;;;;;;5089694;28;20425;-68
2023/06/26 02:16:29;;;;;;;7.53;6.83;;;22.60;99.90;;;;;;5085771;28;20192;-68
2023/06/26 02:18:57;;;;;;;7.57;6.87;;;22.60;99.90;;;;;;5075496;28;20230;-68
2023/06/26 02:21:23;;;;;;;9.97;7.20;;;22.50;99.90;;;;;;5083646;28;20419;-68
2023/06/26 02:23:48;;;;;;;8.17;7.40;;;22.50;99.90;;;;;;5079568;28;20539;-68
2023/06/26 02:26:14;;;;;;;7.70;7.00;;;22.60;99.90;;;;;;5081073;28;20493;-68
2023/06/26 02:28:40;;;;;;;7.70;7.03;;;22.50;99.90;;;;;;5086283;28;20213;-68
2023/06/26 02:31:05;;;;;;;7.90;7.30;;;22.50;99.90;;;;;;5082937;28;20207;-68
2023/06/26 02:33:32;;;;;;;9.00;6.90;;;22.60;99.90;;;;;;5080441;28;20647;-68
2023/06/26 02:35:57;;;;;;;8.10;7.40;;;22.60;99.90;;;;;;5089398;28;20209;-68
2023/06/26 02:38:23;;;;;;;7.93;7.20;;;22.60;99.90;;;;;;5081477;28;20524;-68
2023/06/26 02:40:49;;;;;;;7.93;7.13;;;22.60;99.90;;;;;;5088412;28;20204;-68
2023/06/26 02:43:14;;;;;;;7.67;7.07;;;22.60;99.90;;;;;;5084954;28;20192;-68
2023/06/26 02:45:40;;;;;;;6.60;6.10;;;22.60;99.90;;;;;;5089241;28;20180;-68
2023/06/26 02:48:06;;;;;;;8.33;7.57;;;22.50;99.90;;;;;;5083622;28;20231;-68
2023/06/26 02:50:31;;;;;;;7.00;6.30;;;22.40;99.90;;;;;;5077034;28;20207;-68
2023/06/26 02:52:57;;;;;;;6.87;6.27;;;22.40;99.90;;;;;;5082056;28;20173;-67
2023/06/26 02:55:22;;;;;;;8.23;7.43;;;22.30;99.90;;;;;;5083933;28;20176;-67
2023/06/26 02:57:48;;;;;;;7.30;6.60;;;22.30;99.90;;;;;;5081909;28;20633;-67
2023/06/26 03:00:15;;;;;;;8.13;7.37;;;22.30;99.90;;;;;;5084182;28;20196;-67
2023/06/26 03:02:40;;;;;;;7.20;6.13;;;22.30;99.90;;;;;;5077553;28;20200;-67
2023/06/26 03:05:06;;;;;;;7.80;7.10;;;22.30;99.90;;;;;;5082655;28;20846;-67
2023/06/26 03:07:32;;;;;;;7.03;6.40;;;22.30;99.90;;;;;;5083743;28;20204;-68
2023/06/26 03:09:58;;;;;;;7.73;7.07;;;22.30;99.90;;;;;;5088747;28;20643;-68
2023/06/26 03:12:25;;;;;;;7.63;7.03;;;22.30;99.90;;;;;;5081146;28;20387;-67
2023/06/26 03:14:51;;;;;;;7.37;6.77;;;22.30;99.90;;;;;;5088335;28;20843;-68
2023/06/26 03:17:16;;;;;;;7.43;6.70;;;22.20;99.90;;;;;;5083868;28;20506;-68
2023/06/26 03:19:42;;;;;;;6.83;6.23;;;22.20;99.90;;;;;;5080434;28;21015;-68
2023/06/26 03:22:08;;;;;;;7.47;6.80;;;22.10;99.90;;;;;;5086934;28;20211;-68
2023/06/26 03:24:33;;;;;;;7.80;7.10;;;22.00;99.90;;;;;;5079220;28;20181;-68
2023/06/26 03:26:59;;;;;;;7.93;6.97;;;21.90;99.90;;;;;;5086734;28;20279;-69
2023/06/26 03:29:25;;;;;;;6.70;6.10;;;21.90;99.90;;;;;;5081029;28;20236;-68
2023/06/26 03:31:51;;;;;;;7.53;6.93;;;22.00;99.90;;;;;;5078965;28;20411;-68
2023/06/26 03:34:17;;;;;;;6.73;6.13;;;22.10;99.90;;;;;;5082714;28;20206;-68
2023/06/26 03:36:42;;;;;;;7.80;7.00;;;22.10;99.90;;;;;;5083948;28;20242;-68
2023/06/26 03:39:08;;;;;;;8.23;7.30;;;22.10;99.90;;;;;;5080867;28;20215;-67
2023/06/26 03:41:34;;;;;;;7.40;6.40;;;22.20;99.90;;;;;;5082533;28;20721;-68
2023/06/26 03:44:00;;;;;;;7.23;6.60;;;22.20;99.90;;;;;;5078160;28;20206;-67
2023/06/26 03:46:26;;;;;;;7.63;6.97;;;22.20;99.90;;;;;;5087723;28;20251;-68
2023/06/26 03:48:52;;;;;;;7.20;6.60;;;22.30;99.90;;;;;;5088396;28;20561;-68
2023/06/26 03:51:17;;;;;;;7.30;6.77;;;22.20;99.90;;;;;;5086113;28;20625;-68
2023/06/26 03:53:43;;;;;;;8.50;7.70;;;22.30;99.90;;;;;;5085688;28;20192;-68
2023/06/26 03:56:09;;;;;;;9.90;6.70;;;22.30;99.90;;;;;;5082498;28;20629;-68
2023/06/26 03:58:34;;;;;;;6.83;6.33;;;22.30;99.90;;;;;;5083689;28;20645;-68
2023/06/26 04:01:00;;;;;;;7.57;6.80;;;22.20;99.90;;;;;;5090513;28;20669;-68
2023/06/26 04:03:26;;;;;;;7.80;7.10;;;22.30;99.90;;;;;;5081145;28;20177;-68
2023/06/26 04:05:52;;;;;;;7.80;7.10;;;22.30;99.90;;;;;;5089699;28;20484;-67
2023/06/26 04:08:19;;;;;;;7.37;6.60;;;22.30;99.90;;;;;;5080136;28;20215;-67
2023/06/26 04:10:45;;;;;;;9.30;7.67;;;22.30;99.90;;;;;;5087811;28;20204;-68
2023/06/26 04:13:11;;;;;;;7.80;7.07;;;22.40;99.90;;;;;;5085904;28;20418;-69
2023/06/26 04:15:37;;;;;;;8.03;7.33;;;22.40;99.90;;;;;;5087791;28;20767;-68
2023/06/26 04:18:03;;;;;;;8.00;7.30;;;22.30;99.90;;;;;;5083117;28;20513;-68
2023/06/26 04:20:28;;;;;;;8.37;7.57;;;22.30;99.90;;;;;;5088364;28;20196;-68
2023/06/26 04:22:54;;;;;;;10.50;7.13;;;22.30;99.90;;;;;;5084895;28;20210;-68
2023/06/26 04:25:20;;;;;;;8.80;7.27;;;22.20;99.90;;;;;;5091857;28;20192;-68
2023/06/26 04:27:45;;;;;;;7.43;6.83;;;22.20;99.90;;;;;;5091763;28;20212;-68
2023/06/26 04:30:12;;;;;;;8.40;7.50;;;22.30;99.90;;;;;;5110332;28;20210;-67
2023/06/26 04:32:38;;;;;;;8.10;7.40;;;22.20;99.90;;;;;;5111809;28;20188;-67
2023/06/26 04:35:03;;;;;;;7.97;6.87;;;22.30;99.90;;;;;;5111868;28;20494;-68
2023/06/26 04:37:29;;;;;;;6.97;6.40;;;22.30;99.90;;;;;;5112247;28;20180;-68
2023/06/26 04:39:55;;;;;;;7.43;6.80;;;22.40;99.90;;;;;;5112228;28;20248;-68
2023/06/26 04:42:21;;;;;;;7.40;6.70;;;22.30;99.90;;;;;;5110418;28;20670;-68
2023/06/26 04:44:47;;;;;;;10.93;7.60;;;22.40;99.90;;;;;;5111684;28;20192;-68
2023/06/26 04:47:14;;;;;;;7.97;6.90;;;22.30;99.90;;;;;;5112067;28;21317;-68
2023/06/26 04:49:45;;;;;;;9.10;7.10;;;22.30;99.90;;;;;;5111871;28;20479;-67
2023/06/26 04:52:14;;;;;;;7.70;6.87;;;22.40;99.90;;;;;;5098416;28;20447;-68
2023/06/26 04:54:40;;;;;;;7.37;6.50;;;22.40;99.90;;;;;;5090259;28;20418;-67
2023/06/26 04:57:06;;;;;;;8.67;7.17;;;22.40;99.90;;;;;;5088206;28;20476;-67
2023/06/26 04:59:31;;;;;;;11.30;8.53;;;22.40;99.90;;;;;;5088019;28;20664;-67
2023/06/26 05:01:57;;;;;;;6.90;6.30;;;22.40;99.90;;;;;;5087617;28;20633;-67
2023/06/26 05:04:23;;;;;;;7.90;7.13;;;22.50;99.90;;;;;;5090992;28;20540;-68
2023/06/26 05:06:48;;;;;;;7.83;7.10;;;22.50;99.90;;;;;;5088943;28;20181;-68
2023/06/26 05:09:14;;;;;;;7.60;6.90;;;22.50;99.90;;;;;;5090598;28;20230;-68
2023/06/26 05:11:40;;;;;;;9.17;8.27;;;22.50;99.90;;;;;;5090528;28;20656;-68
2023/06/26 05:14:09;;;;;;;8.67;7.87;;;22.60;99.90;;;;;;5090453;28;20653;-68
2023/06/26 05:16:35;;;;;;;8.53;7.77;;;22.60;99.90;;;;;;5073900;28;20332;-68
2023/06/26 05:19:01;;;;;;;9.40;8.17;;;22.60;99.90;;;;;;5070389;28;20494;-68
2023/06/26 05:21:28;;;;;;;9.60;8.10;;;22.60;99.90;;;;;;5070072;28;20435;-69
2023/06/26 05:23:56;;;;;;;9.00;8.10;;;22.60;99.90;;;;;;5069998;28;20419;-69
2023/06/26 05:26:22;;;;;;;8.10;7.40;;;22.60;99.90;;;;;;5069407;28;20411;-69
2023/06/26 05:28:48;;;;;;;8.90;8.10;;;22.60;99.90;;;;;;5083966;28;20517;-68
2023/06/26 05:31:15;;;;;;;8.67;7.67;;;22.60;99.90;;;;;;5110549;28;20168;-68
2023/06/26 05:33:44;;;;;;;9.13;8.23;;;22.50;99.90;;;;;;5110320;28;20421;-68
2023/06/26 05:36:09;;;;;;;11.10;8.07;;;22.40;99.90;;;;;;5110658;28;20781;-68
2023/06/26 05:38:35;;;;;;;10.10;9.00;;;22.40;99.90;;;;;;5110605;28;20417;-68
2023/06/26 05:41:01;;;;;;;9.43;8.63;;;22.50;99.90;;;;;;5110577;27;20211;-68
2023/06/26 05:43:27;;;;;;;9.53;8.63;;;22.60;99.90;;;;;;5109806;28;20456;-68
2023/06/26 05:45:53;;;;;;;9.43;8.63;;;22.70;99.90;;;;;;5110775;28;20196;-68
2023/06/26 05:48:18;;;;;;;9.77;8.70;;;22.80;99.90;;;;;;5110349;28;20204;-68
2023/06/26 05:50:45;;;;;;;9.87;8.97;;;22.90;99.90;;;;;;5089744;28;20310;-67
2023/06/26 05:53:11;;;;;;;10.23;9.33;;;23.00;99.90;;;;;;5089258;28;20651;-68
2023/06/26 05:55:36;;;;;;;10.10;9.10;;;23.20;99.90;;;;;;5089869;28;20415;-67
2023/06/26 05:58:03;;;;;;;9.27;8.47;;;23.20;99.90;;;;;;5089593;28;20414;-68
2023/06/26 06:00:29;;;;;;;10.63;8.80;;;23.20;99.90;;;;;;5079987;28;20525;-68
2023/06/26 06:02:55;;;;;;;9.10;8.20;;;23.30;99.90;;;;;;5078751;28;20438;-68
2023/06/26 06:05:21;;;;;;;9.20;7.20;;;23.30;99.90;;;;;;5080620;28;20420;-68
2023/06/26 06:07:48;;;;;;;10.93;6.93;;;23.40;99.90;;;;;;5077268;28;20204;-68
2023/06/26 06:10:13;;;;;;;8.50;7.60;;;23.40;99.90;;;;;;5072480;28;20433;-68
2023/06/26 06:12:39;;;;;;;10.80;7.33;;;23.30;99.90;;;;;;5085361;28;20472;-68
2023/06/26 06:15:06;;;;;;;10.00;7.80;;;23.20;99.90;;;;;;5081713;28;20738;-68
2023/06/26 06:17:31;;;;;;;7.50;6.63;;;23.10;99.90;;;;;;5082936;28;20271;-68
2023/06/26 06:19:57;;;;;;;8.80;7.47;;;23.20;99.90;;;;;;5086425;28;21013;-68
2023/06/26 06:22:23;;;;;;;7.63;6.57;;;23.30;99.90;;;;;;5080657;28;20595;-68
2023/06/26 06:24:50;;;;;;;7.97;7.20;;;23.30;99.90;;;;;;5084208;28;20287;-68
2023/06/26 06:27:16;;;;;;;8.90;6.97;;;23.30;99.90;;;;;;5082527;28;20204;-68
2023/06/26 06:29:41;;;;;;;7.10;6.37;;;23.20;99.90;;;;;;5089160;28;20551;-69
2023/06/26 06:32:07;;;;;;;7.30;6.53;;;23.30;99.90;;;;;;5088827;28;20490;-68
2023/06/26 06:34:33;;;;;;;10.50;6.00;;;23.30;99.90;;;;;;5088833;28;20172;-68
2023/06/26 06:36:59;;;;;;;7.57;6.10;;;23.40;99.90;;;;;;5089219;28;21002;-68
2023/06/26 06:39:25;;;;;;;8.30;6.70;;;23.50;99.90;;;;;;5089063;28;20200;-68
2023/06/26 06:41:51;;;;;;;8.47;6.73;;;23.60;99.90;;;;;;5087473;28;20505;-68
2023/06/26 06:44:16;;;;;;;9.87;6.33;;;23.60;99.90;;;;;;5088701;28;20188;-69
2023/06/26 06:46:42;;;;;;;7.73;6.53;;;23.80;99.90;;;;;;5089250;28;20233;-69
2023/06/26 06:49:09;;;;;;;9.87;7.03;;;23.90;99.90;;;;;;5088523;28;20220;-68
2023/06/26 06:51:34;;;;;;;7.90;6.30;;;23.90;99.90;;;;;;5088510;28;20549;-69
2023/06/26 06:54:00;;;;;;;10.10;6.37;;;23.80;99.90;;;;;;5076880;28;20410;-69
2023/06/26 06:56:26;;;;;;;9.43;6.30;;;23.80;99.90;;;;;;5068309;28;20262;-69
2023/06/26 06:58:52;;;;;;;12.00;7.00;;;23.90;99.90;;;;;;5067859;28;20446;-69
2023/06/26 07:01:18;;;;;;;8.10;6.60;;;23.80;99.90;;;;;;5067994;28;20181;-69
2023/06/26 07:03:43;;;;;;;11.40;6.70;;;23.70;99.90;;;;;;5070733;28;20204;-69
2023/06/26 07:06:09;;;;;;;9.53;6.90;;;23.40;99.90;;;;;;5088537;28;20202;-69
2023/06/26 07:08:35;;;;;;;9.57;6.47;;;23.40;99.90;;;;;;5088245;28;20212;-69
2023/06/26 07:11:01;;;;;;;9.60;6.63;;;23.50;99.90;;;;;;5088377;28;20785;-69
2023/06/26 07:13:27;;;;;;;10.53;6.40;;;23.50;99.90;;;;;;5087726;28;20866;-69
2023/06/26 07:15:52;;;;;;;10.10;6.80;;;23.60;99.90;;;;;;5088049;28;20442;-69
2023/06/26 07:18:18;;;;;;;9.23;6.73;;;23.70;99.90;;;;;;5088068;28;20253;-69
2023/06/26 07:20:44;;;;;;;9.30;6.40;;;23.70;99.90;;;;;;5077754;28;20299;-69
2023/06/26 07:23:10;;;;;;;9.80;6.80;;;23.80;99.90;;;;;;5084925;28;20172;-69
2023/06/26 07:25:36;;;;;;;7.90;7.10;;;23.90;99.90;;;;;;5067786;28;20191;-69
2023/06/26 07:28:02;;;;;;;9.90;7.13;;;24.00;99.90;;;;;;5068436;28;20216;-69
2023/06/26 07:30:28;;;;;;;10.97;7.50;;;24.00;99.90;;;;;;5108376;28;20444;-69
2023/06/26 07:32:54;;;;;;;11.60;7.83;;;24.00;99.90;;;;;;5106629;28;20406;-69
2023/06/26 07:35:19;;;;;;;7.83;7.03;;;23.90;99.90;;;;;;5108345;28;20286;-69
2023/06/26 07:37:45;;;;;;;8.50;7.00;;;24.00;99.90;;;;;;5108384;28;20695;-69
2023/06/26 07:40:11;;;;;;;8.97;7.10;;;24.10;99.90;;;;;;5108171;28;20199;-69
2023/06/26 07:42:37;;;;;;;11.00;7.00;;;24.20;99.90;;;;;;5107867;28;20183;-69
2023/06/26 07:45:09;;;;;;;9.83;7.10;;;24.30;99.90;;;;;;5106594;28;20455;-69
2023/06/26 07:47:36;;;;;;;8.70;6.87;;;24.40;99.90;;;;;;5108150;28;20691;-69
2023/06/26 07:50:02;;;;;;;8.30;6.47;;;24.50;99.90;;;;;;5108087;28;20430;-69
2023/06/26 07:52:27;;;;;;;8.87;6.73;;;24.50;99.90;;;;;;5107765;28;20406;-69
2023/06/26 07:54:53;;;;;;;9.23;7.20;;;24.40;99.90;;;;;;5107637;28;20410;-69
2023/06/26 07:57:19;;;;;;;10.90;8.27;;;24.50;99.90;;;;;;5106154;28;20274;-69
2023/06/26 07:59:44;;;;;;;11.80;8.77;;;24.60;99.90;;;;;;5107828;28;20207;-69
2023/06/26 08:02:10;;;;;;;9.03;6.87;;;24.60;99.90;;;;;;5107705;28;20213;-69
2023/06/26 08:04:36;;;;;;;9.13;7.47;;;24.60;99.90;;;;;;5097380;28;20204;-69
2023/06/26 08:07:03;;;;;;;9.73;8.40;;;24.70;99.90;;;;;;5087664;28;20188;-69
2023/06/26 08:09:30;;;;;;;10.00;7.40;;;24.40;99.90;;;;;;5087719;28;20193;-69
2023/06/26 08:11:56;;;;;;;10.53;8.23;;;24.20;99.90;;;;;;5087290;28;20440;-69
2023/06/26 08:14:23;;;;;;;10.50;7.03;;;24.20;99.90;;;;;;5087642;28;20415;-69
2023/06/26 08:16:49;;;;;;;10.43;7.10;;;24.10;99.90;;;;;;5087629;28;20463;-69
2023/06/26 08:19:16;;;;;;;10.83;7.17;;;24.00;99.90;;;;;;5087514;28;20519;-69
2023/06/26 08:21:43;;;;;;;10.37;7.60;;;24.10;99.90;;;;;;5087093;28;20187;-69
2023/06/26 08:24:09;;;;;;;12.57;8.00;;;24.00;99.90;;;;;;5087312;28;20414;-69
2023/06/26 08:26:36;;;;;;;12.10;7.33;;;24.00;99.90;;;;;;5087482;28;20433;-69
2023/06/26 08:29:07;;;;;;;10.00;7.07;;;24.00;99.90;;;;;;5096188;28;20956;-69
2023/06/26 08:31:34;;;;;;;10.23;6.80;;;24.00;99.90;;;;;;5107512;28;20429;-69
2023/06/26 08:34:00;;;;;;;9.37;7.77;;;24.10;99.90;;;;;;5110568;28;20416;-69
2023/06/26 08:36:26;;;;;;;10.10;8.10;;;24.20;99.90;;;;;;5111652;28;20402;-69
2023/06/26 08:38:52;;;;;;;7.70;6.70;;;24.20;99.90;;;;;;5111208;28;20416;-69
2023/06/26 08:41:17;;;;;;;9.50;7.20;;;24.20;99.90;;;;;;5111257;28;20436;-69
2023/06/26 08:43:43;;;;;;;9.27;7.37;;;24.30;99.90;;;;;;5107555;28;20188;-69
2023/06/26 08:46:09;;;;;;;13.73;8.60;;;24.40;99.90;;;;;;5078292;28;20185;-69
2023/06/26 08:48:39;;;;;;;9.93;8.53;;;24.40;99.90;;;;;;5079206;28;20219;-69
2023/06/26 08:51:15;;;;;;;10.27;8.97;;;24.30;99.90;;;;;;5077797;28;20216;-69
2023/06/26 08:53:57;;;;;;;14.23;9.37;;;24.20;99.90;;;;;;5070318;28;20796;-69
2023/06/26 08:56:25;;;;;;;9.93;8.27;;;24.20;99.90;;;;;;5071018;28;20858;-69
2023/06/26 08:58:51;;;;;;;13.20;9.80;;;24.20;99.90;;;;;;5069292;28;20892;-69
2023/06/26 09:01:17;;;;;;;11.30;9.73;;;24.30;99.90;;;;;;5069365;28;20419;-69
2023/06/26 09:03:43;;;;;;;12.40;8.93;;;24.30;99.90;;;;;;5072985;28;20736;-69
2023/06/26 09:06:09;;;;;;;12.77;9.00;;;24.40;99.90;;;;;;5079396;28;20410;-69
2023/06/26 09:08:35;;;;;;;15.70;10.13;;;24.20;99.90;;;;;;5075370;28;20216;-69
2023/06/26 09:11:00;;;;;;;14.93;9.00;;;24.00;99.90;;;;;;5070531;28;20431;-68
2023/06/26 09:13:29;;;;;;;10.40;8.40;;;23.80;99.90;;;;;;5069827;28;20169;-68
2023/06/26 09:15:55;;;;;;;10.10;8.67;;;23.80;99.90;;;;;;5070627;28;20169;-68
2023/06/26 09:18:21;;;;;;;8.87;7.97;;;23.80;99.90;;;;;;5070727;28;20494;-68
2023/06/26 09:20:48;;;;;;;9.13;8.30;;;23.80;99.90;;;;;;5070480;28;20910;-68
2023/06/26 09:23:14;;;;;;;7.77;6.77;;;24.00;99.90;;;;;;5069580;28;20436;-68
2023/06/26 09:25:41;;;;;;;8.10;7.30;;;24.10;99.90;;;;;;5070338;28;20438;-68
2023/06/26 09:28:08;;;;;;;8.10;7.00;;;24.30;99.90;;;;;;5072456;28;20909;-68
2023/06/26 09:30:34;;;;;;;9.00;7.00;;;24.40;99.90;;;;;;5102736;28;20438;-69
2023/06/26 09:33:37;;;;;;;15.63;7.10;;;24.30;99.90;;;;;;5074734;28;20419;-69
2023/06/26 09:36:09;;;;;;;12.50;6.90;;;24.20;99.90;;;;;;5058461;28;20185;-69
2023/06/26 09:38:35;;;;;;;11.53;7.10;;;24.20;99.90;;;;;;5068919;28;20470;-69
2023/06/26 09:41:03;;;;;;;11.70;6.10;;;24.30;99.90;;;;;;5070150;28;20435;-69
2023/06/26 09:43:28;;;;;;;9.43;5.73;;;24.30;99.90;;;;;;5069184;28;21071;-69
2023/06/26 09:45:54;;;;;;;8.00;5.30;;;24.40;99.90;;;;;;5069386;28;20415;-69
2023/06/26 09:48:21;;;;;;;6.60;5.00;;;24.50;99.90;;;;;;5070140;28;20212;-69
2023/06/26 09:50:47;;;;;;;8.87;6.30;;;24.60;99.90;;;;;;5070089;28;20470;-69
2023/06/26 09:53:13;;;;;;;9.23;5.93;;;24.70;99.90;;;;;;5068954;28;20725;-69
2023/06/26 09:55:43;;;;;;;7.50;5.57;;;24.70;99.90;;;;;;5069684;28;20568;-69
2023/06/26 09:58:14;;;;;;;7.73;5.60;;;24.80;99.90;;;;;;5068928;28;20415;-69
2023/06/26 10:00:42;;;;;;;7.30;5.23;;;24.90;99.90;;;;;;5069768;28;20814;-69
2023/06/26 10:03:08;;;;;;;9.03;5.60;;;25.00;99.90;;;;;;5068761;28;20451;-69
2023/06/26 10:05:34;;;;;;;8.40;5.43;;;25.00;99.90;;;;;;5087641;28;20430;-69
2023/06/26 10:08:00;;;;;;;9.63;6.60;;;25.00;99.90;;;;;;5090042;28;20446;-69
2023/06/26 10:10:27;;;;;;;8.03;5.97;;;25.20;99.90;;;;;;5089522;28;20518;-69
2023/06/26 10:12:59;;;;;;;8.00;5.00;;;25.30;99.90;;;;;;5089010;28;20497;-69
2023/06/26 10:15:26;;;;;;;10.67;6.30;;;25.40;99.90;;;;;;5089489;28;20511;-69
2023/06/26 10:17:56;;;;;;;7.30;5.00;;;25.40;99.90;;;;;;5089412;28;20410;-69
2023/06/26 10:20:22;;;;;;;7.73;5.23;;;25.60;99.90;;;;;;5089280;28;20430;-69
2023/06/26 10:22:48;;;;;;;6.63;5.10;;;25.70;99.90;;;;;;5088743;28;20445;-69
2023/06/26 10:25:19;;;;;;;8.87;4.93;;;25.80;99.90;;;;;;5087019;28;20832;-69
2023/06/26 10:27:56;;;;;;;7.17;5.90;;;25.90;99.40;;;;;;5068589;28;20490;-69
2023/06/26 10:30:26;;;;;;;8.00;5.73;;;25.90;99.90;;;;;;5093711;28;20942;-69
2023/06/26 10:32:53;;;;;;;10.47;5.50;;;25.80;99.90;;;;;;5070993;28;20484;-69
2023/06/26 10:35:19;;;;;;;8.43;5.00;;;25.60;99.30;;;;;;5068483;28;20412;-69
2023/06/26 10:37:47;;;;;;;6.37;4.83;;;25.50;99.90;;;;;;5072506;28;20434;-69
2023/06/26 10:40:14;;;;;;;9.17;4.40;;;25.60;99.90;;;;;;5082929;28;20200;-69
2023/06/26 10:42:41;;;;;;;7.97;4.83;;;25.80;99.70;;;;;;5084382;28;20502;-69
2023/06/26 10:45:17;;;;;;;7.93;4.40;;;25.80;97.50;;;;;;5082343;28;20441;-69
2023/06/26 10:47:47;;;;;;;4.53;4.10;;;25.60;97.80;;;;;;5086670;28;20611;-69
2023/06/26 10:50:19;;;;;;;7.20;4.73;;;25.60;98.60;;;;;;5080788;28;20447;-69
2023/06/26 10:52:45;;;;;;;8.70;5.40;;;25.60;98.70;;;;;;5081688;28;20764;-69
2023/06/26 10:55:13;;;;;;;6.00;4.40;;;25.50;99.50;;;;;;5085166;28;20411;-69
2023/06/26 10:57:39;;;;;;;7.93;4.40;;;25.40;99.60;;;;;;5079688;28;20184;-69
2023/06/26 11:00:13;;;;;;;5.63;4.53;;;25.30;99.80;;;;;;5084091;28;20987;-69
2023/06/26 11:02:53;;;;;;;5.57;4.47;;;25.30;99.90;;;;;;5077805;28;20598;-69
2023/06/26 11:05:26;;;;;;;5.00;4.40;;;25.30;99.90;;;;;;5083016;28;20442;-69
2023/06/26 11:08:10;;;;;;;5.97;4.10;;;25.10;99.30;;;;;;5076115;28;20817;-69
2023/06/26 11:10:53;;;;;;;3.93;3.30;;;25.00;97.30;;;;;;5080885;28;20446;-69
2023/06/26 11:13:20;;;;;;;8.93;4.70;;;24.90;98.30;;;;;;5082738;28;20861;-69
2023/06/26 11:15:50;;;;;;;7.10;4.53;;;24.80;98.20;;;;;;5076970;28;20445;-69
2023/06/26 11:18:16;;;;;;;5.30;3.60;;;24.70;98.70;;;;;;5082073;28;20421;-69
2023/06/26 11:20:42;;;;;;;6.00;4.10;;;24.60;99.10;;;;;;5083215;28;20436;-69
2023/06/26 11:23:08;;;;;;;5.30;4.00;;;24.80;99.00;;;;;;5080166;28;20781;-69
2023/06/26 11:25:38;;;;;;;5.30;4.60;;;25.10;98.60;;;;;;5079607;28;20216;-69
2023/06/26 11:28:05;;;;;;;5.70;5.10;;;25.30;99.20;;;;;;5088555;28;21025;-69
2023/06/26 11:30:31;;;;;;;8.40;5.30;;;25.40;99.30;;;;;;5078730;28;20534;-69
2023/06/26 11:33:08;;;;;;;5.77;4.30;;;25.20;99.50;;;;;;5086273;28;20827;-69
2023/06/26 11:35:34;;;;;;;5.77;3.80;;;25.00;99.90;;;;;;5078329;28;20422;-69
2023/06/26 11:38:04;;;;;;;6.23;4.73;;;24.80;99.90;;;;;;5085661;28;20900;-69
2023/06/26 11:40:32;;;;;;;5.30;4.50;;;24.70;99.90;;;;;;5078838;28;20530;-69
2023/06/26 11:42:59;;;;;;;7.40;5.20;;;24.60;99.90;;;;;;5085579;28;20456;-69
2023/06/26 11:45:29;;;;;;;4.30;3.70;;;24.50;99.90;;;;;;5076811;28;20447;-69
2023/06/26 11:47:56;;;;;;;9.07;4.30;;;24.60;99.90;;;;;;5084321;28;20461;-69
2023/06/26 11:50:22;;;;;;;7.90;4.43;;;24.50;99.90;;;;;;5083404;28;20442;-69
2023/06/26 11:52:58;;;;;;;5.60;3.60;;;24.40;99.70;;;;;;5082478;28;20517;-69
2023/06/26 11:55:25;;;;;;;4.77;3.37;;;24.30;99.50;;;;;;5082666;28;20414;-69
2023/06/26 11:57:54;;;;;;;3.50;2.60;;;24.20;99.50;;;;;;5074919;28;20501;-69
2023/06/26 12:00:21;;;;;;;3.23;2.90;;;24.30;99.40;;;;;;5080899;28;20442;-69
2023/06/26 12:02:46;;;;;;;3.17;2.87;;;24.50;98.70;;;;;;5080898;28;20418;-69
2023/06/26 12:05:21;;;;;;;5.33;2.70;;;24.70;99.20;;;;;;5083443;28;20965;-69
2023/06/26 12:07:48;;;;;;;5.57;2.50;;;24.80;97.00;;;;;;5078033;28;20214;-69
2023/06/26 12:10:15;;;;;;;4.27;2.80;;;24.80;97.00;;;;;;5086701;28;20466;-69
2023/06/26 12:12:41;;;;;;;5.80;3.13;;;24.90;97.70;;;;;;5087249;28;20734;-68
2023/06/26 12:15:08;;;;;;;4.73;2.67;;;24.90;97.40;;;;;;5085354;28;20417;-68
2023/06/26 12:17:39;;;;;;;5.10;2.60;;;25.00;96.90;;;;;;5086929;28;20454;-68
2023/06/26 12:20:05;;;;;;;3.13;2.30;;;25.10;97.30;;;;;;5083839;28;21043;-68
2023/06/26 12:22:37;;;;;;;6.33;3.10;;;25.20;96.80;;;;;;5083780;28;20774;-69
2023/06/26 12:25:06;;;;;;;2.53;2.03;;;25.20;96.20;;;;;;5082373;28;20796;-68
2023/06/26 12:27:32;;;;;;;5.67;2.80;;;25.20;95.00;;;;;;5082203;28;20450;-68
2023/06/26 12:29:58;;;;;;;4.60;2.30;;;25.10;93.80;;;;;;5092875;28;20455;-69
2023/06/26 12:32:25;;;;;;;2.50;2.30;;;24.90;94.10;;;;;;5080085;28;20639;-68
2023/06/26 12:34:50;;;;;;;2.50;1.80;;;24.80;94.30;;;;;;5088112;28;20184;-68
2023/06/26 12:37:16;;;;;;;3.03;1.90;;;24.80;94.10;;;;;;5079256;28;20415;-68
2023/06/26 12:39:58;;;;;;;5.00;2.27;;;25.00;94.50;;;;;;5089075;28;20618;-68
2023/06/26 12:42:26;;;;;;;4.43;2.10;;;25.20;93.20;;;;;;5087579;28;20271;-68
2023/06/26 12:44:54;;;;;;;2.50;1.77;;;25.20;93.60;;;;;;5081651;28;20464;-68